Aeroporto :
LOGIN :

Iscrizione | Disclaimer

   EN    FR    IT 

 










Sommario :    VFR   VFR Marginale   IFR   IFR Intensivo   IFR Molto Intensivo
Visibilità : 
Base nubi : 
>= 8 km
>= 3000ft
5 / 8 km
1000 / 3000 ft
1500m / 5 km
500 / 1000 ft
800 / 1500m
200 / 500 ft
< 800m
< 200 ft
Simboli :   Temporali  Nebbia  Neve Forte  Precipitazioni Forti  Vento > 20 kt
SIGMETs :   Varie  Temporali  Ghiacco  Turbolenza  Onda orograficha  Ceneri Vulcaniche






- Altitudine del aeroporto : 458 ft


LFSI - St-Dizier

ULTIMO METAR :
  • 200700Z AUTO 09007KT CAVOK M01/M02 Q1015

METARs OBSOLETI :
  • 200630Z AUTO 10006KT CAVOK M02/M03 Q1016
  • 200600Z AUTO 09006KT CAVOK M02/M03 Q1016
  • 200530Z AUTO 09004KT 8000 NSC M02/M03 Q1016
  • 200500Z AUTO 09006KT 8000 NSC M01/M02 Q1016
  • 200430Z AUTO 09005KT 8000 NSC M02/M02 Q1016

TAF TAF LFSI
Valido dal 20 a 03 ore il 21 a 03 ore UTC


200200Z 2003/2103 09005KT 7000 NSC
TEMPO 2003/2009 2000 BR BKN005
PROB40
TEMPO 2003/2008 0500 FG VV///
TEMPO 2009/2015 BKN012



MetMap, La meteo Aeronautica in un colpo d'occhio ! - Copyright ORBIFLY Dicembre 2007 - Disclaimer

ORBIFLY MET'MAP TEAM :

Programmazione e sviluppo : Alexandra Zaïnal
Concezione e sviluppo : Baudouin d'Aumeries
Co-Programmazione e sviluppo : Marc-Olivier Méhu
Supporto tecnico e logistico : Manuel Goepfert
Aiuto per la traduzione : Arnaldo La Scala

Contatto : metmap@orbifly.com




FONTI E CREDITI :

   NOAA